This is the latest recevied weather packets stored in our database for station/object DB0TGO-13. If no packets are shown the sender has not sent any weather packets the latest 10 day(s).
| Time | Temp. | Humidity | Pressure | Rain* | Wind** | Luminosity | Snow |
|---|---|---|---|---|---|---|---|
| 1777441502 | 4.44° C | 57% | 1023.5 hPa | - | - | - | - |
| 1777440603 | 4.44° C | 57% | 1023.5 hPa | - | - | - | - |
| 1777439703 | 2.78° C | 62% | 1023.2 hPa | - | - | - | - |
| 1777438802 | 2.78° C | 62% | 1023.2 hPa | - | - | - | - |
| 1777437902 | 2.22° C | 63% | 1022.9 hPa | - | - | - | - |
| 1777437002 | 2.22° C | 63% | 1022.9 hPa | - | - | - | - |
| 1777436102 | 1.67° C | 65% | 1022.7 hPa | - | - | - | - |
| 1777435203 | 1.67° C | 65% | 1022.7 hPa | - | - | - | - |
| 1777434302 | 2.78° C | 63% | 1022.6 hPa | - | - | - | - |
| 1777433402 | 2.78° C | 63% | 1022.6 hPa | - | - | - | - |
| 1777432503 | 2.78° C | 63% | 1022.6 hPa | - | - | - | - |
| 1777431604 | 2.78° C | 63% | 1022.6 hPa | - | - | - | - |
| 1777409102 | 9.44° C | 41% | 1020.4 hPa | - | - | - | - |
| 1777408203 | 9.44° C | 41% | 1020.4 hPa | - | - | - | - |
| 1777407302 | 10.56° C | 42% | 1020.2 hPa | - | - | - | - |
| 1777406403 | 10.56° C | 42% | 1020.2 hPa | - | - | - | - |
| 1777405503 | 11.11° C | 38% | 1019.6 hPa | - | - | - | - |
| 1777404602 | 11.11° C | 38% | 1019.6 hPa | - | - | - | - |
| 1777403702 | 10.56° C | 40% | 1019.4 hPa | - | - | - | - |
| 1777402802 | 10.56° C | 40% | 1019.4 hPa | - | - | - | - |
| 1777401902 | 11.67° C | 38% | 1019.2 hPa | - | - | - | - |
| 1777401002 | 11.67° C | 38% | 1019.2 hPa | - | - | - | - |
| 1777400102 | 12.78° C | 34% | 1019.1 hPa | - | - | - | - |
| 1777399203 | 12.78° C | 34% | 1019.1 hPa | - | - | - | - |
| 1777398303 | 12.78° C | 32% | 1019.1 hPa | - | - | - | - |
* Rain since midnight (hover to see other rain measurements)
** Current wind speed in m/s (hover to see current wind gust speed)